createdAt,value
2022-10-19T00:00:25.834Z,1.33
2022-10-19T00:03:27.955Z,1.27
2022-10-19T00:06:31.010Z,1.35
2022-10-19T00:09:34.398Z,1.17
2022-10-19T00:12:36.941Z,1.30
2022-10-19T00:15:39.130Z,1.10
2022-10-19T00:18:42.053Z,1.08
2022-10-19T00:21:45.194Z,1.13
2022-10-19T00:24:47.425Z,1.30
2022-10-19T00:27:51.159Z,1.15
2022-10-19T00:30:54.496Z,1.35
2022-10-19T00:33:57.344Z,1.00
2022-10-19T00:36:59.777Z,1.10
2022-10-19T00:40:02.731Z,1.02
2022-10-19T00:43:05.433Z,1.20
2022-10-19T00:46:07.869Z,0.98
2022-10-19T00:49:11.115Z,1.10
2022-10-19T00:52:13.656Z,1.00
2022-10-19T00:55:16.404Z,1.20
2022-10-19T00:58:19.647Z,1.10
2022-10-19T01:01:22.472Z,1.30
2022-10-19T01:04:24.988Z,1.20
2022-10-19T01:07:27.361Z,1.13
2022-10-19T01:10:29.488Z,0.90
2022-10-19T01:13:31.924Z,1.10
2022-10-19T01:16:34.744Z,1.00
2022-10-19T01:19:37.216Z,1.13
2022-10-19T01:22:39.627Z,1.00
2022-10-19T01:25:42.117Z,1.00
2022-10-19T01:28:44.602Z,0.98
2022-10-19T01:31:46.767Z,1.00
2022-10-19T01:34:49.739Z,1.05
2022-10-19T01:37:52.653Z,1.08
2022-10-19T01:40:55.794Z,1.10
2022-10-19T01:43:59.324Z,0.90
2022-10-19T01:47:01.753Z,0.98
2022-10-19T01:50:04.429Z,1.00
2022-10-19T01:53:07.307Z,0.90
2022-10-19T01:56:10.462Z,1.00
2022-10-19T01:59:13.154Z,0.82
2022-10-19T02:02:15.309Z,0.70
2022-10-19T02:05:17.874Z,0.90
2022-10-19T02:08:20.465Z,0.90
2022-10-19T02:11:22.677Z,0.90
2022-10-19T02:14:25.241Z,1.05
2022-10-19T02:17:27.878Z,0.90
2022-10-19T02:20:29.950Z,0.90
2022-10-19T02:23:32.410Z,1.02
2022-10-19T02:26:35.188Z,1.05
2022-10-19T02:29:38.069Z,0.80
2022-10-19T02:32:41.243Z,0.90
2022-10-19T02:35:43.684Z,1.00
2022-10-19T02:38:46.631Z,0.90
2022-10-19T02:41:49.488Z,0.90
2022-10-19T02:44:51.898Z,0.80
2022-10-19T02:47:54.741Z,0.82
2022-10-19T02:50:56.929Z,0.77
2022-10-19T02:54:02.584Z,0.80
2022-10-19T02:57:08.279Z,0.75
2022-10-19T03:00:11.425Z,0.70
2022-10-19T03:03:14.156Z,0.80
2022-10-19T03:06:16.564Z,0.80
2022-10-19T03:09:18.967Z,0.80
2022-10-19T03:12:21.110Z,0.90
2022-10-19T03:15:24.190Z,0.80
2022-10-19T03:18:27.348Z,0.70
2022-10-19T03:21:30.497Z,0.80
2022-10-19T03:24:33.303Z,0.70
2022-10-19T03:27:36.446Z,0.70
2022-10-19T03:30:39.879Z,0.70
2022-10-19T03:33:43.063Z,0.70
2022-10-19T03:36:45.932Z,0.68
2022-10-19T03:39:48.899Z,0.90
2022-10-19T03:42:51.961Z,0.77
2022-10-19T03:45:55.175Z,0.77
2022-10-19T03:48:58.394Z,0.82
2022-10-19T03:52:01.497Z,0.70
2022-10-19T03:55:04.766Z,0.75
2022-10-19T03:58:07.754Z,0.82
2022-10-19T04:01:11.096Z,0.73
2022-10-19T04:04:13.752Z,0.80
2022-10-19T04:07:17.071Z,0.88
2022-10-19T04:10:20.379Z,0.95
2022-10-19T04:13:23.600Z,0.90
2022-10-19T04:16:26.336Z,0.70
2022-10-19T04:19:28.934Z,0.70
2022-10-19T04:22:31.880Z,0.68
2022-10-19T04:25:35.360Z,0.60
2022-10-19T04:28:38.518Z,0.60
2022-10-19T04:31:41.770Z,0.90
2022-10-19T04:34:44.497Z,0.60
2022-10-19T04:37:47.744Z,0.80
2022-10-19T04:40:50.257Z,0.90
2022-10-19T04:43:52.375Z,0.70
2022-10-19T04:46:54.821Z,0.70
2022-10-19T04:49:57.844Z,0.60
2022-10-19T04:53:00.645Z,0.82
2022-10-19T04:56:03.252Z,0.45
2022-10-19T04:59:05.405Z,0.70
2022-10-19T05:02:08.228Z,0.65
2022-10-19T05:05:11.318Z,0.60
2022-10-19T05:08:13.873Z,0.68
2022-10-19T05:11:16.004Z,0.50
2022-10-19T05:14:18.247Z,0.60
2022-10-19T05:17:20.485Z,0.60
2022-10-19T05:20:23.082Z,0.47
2022-10-19T05:23:25.211Z,0.70
2022-10-19T05:26:27.611Z,0.75
2022-10-19T05:29:30.364Z,0.60
2022-10-19T05:32:33.150Z,0.60
2022-10-19T05:35:36.279Z,0.70
2022-10-19T05:38:38.725Z,0.70
2022-10-19T05:41:41.181Z,0.80
2022-10-19T05:44:44.380Z,0.70
2022-10-19T05:47:47.102Z,0.52
2022-10-19T05:50:49.492Z,0.70
2022-10-19T05:53:51.894Z,0.80
2022-10-19T05:56:55.171Z,0.60
2022-10-19T05:59:57.753Z,0.60
2022-10-19T06:03:00.261Z,0.75
2022-10-19T06:06:02.821Z,0.75
2022-10-19T06:09:05.730Z,0.70
2022-10-19T06:12:08.074Z,0.80
2022-10-19T06:15:11.174Z,0.80
2022-10-19T06:18:14.001Z,0.90
2022-10-19T06:21:16.162Z,0.77
2022-10-19T06:24:19.082Z,0.88
2022-10-19T06:27:21.944Z,1.00
2022-10-19T06:30:24.630Z,0.80
2022-10-19T06:33:26.857Z,1.00
2022-10-19T06:36:29.687Z,0.90
2022-10-19T06:39:32.631Z,0.95
2022-10-19T06:42:35.518Z,0.82
2022-10-19T06:45:38.063Z,0.80
2022-10-19T06:48:40.735Z,0.90
2022-10-19T06:51:43.718Z,0.80
2022-10-19T06:54:46.494Z,0.80
2022-10-19T06:57:49.526Z,1.00
2022-10-19T07:00:52.759Z,0.80
2022-10-19T07:03:55.699Z,1.10
2022-10-19T07:06:58.211Z,0.88
2022-10-19T07:10:01.129Z,1.00
2022-10-19T07:13:04.317Z,0.90
2022-10-19T07:16:07.162Z,0.85
2022-10-19T07:19:09.732Z,0.80
2022-10-19T07:22:15.767Z,0.80
2022-10-19T07:25:22.184Z,1.00
2022-10-19T07:28:24.344Z,0.90
2022-10-19T07:31:27.288Z,0.80
2022-10-19T07:34:30.319Z,0.90
2022-10-19T07:37:33.110Z,1.10
2022-10-19T07:40:35.953Z,0.80
2022-10-19T07:43:38.293Z,0.82
2022-10-19T07:46:41.444Z,0.98
2022-10-19T07:49:43.830Z,1.00
2022-10-19T07:52:46.408Z,1.10
2022-10-19T07:55:48.852Z,0.90
2022-10-19T07:58:51.280Z,1.13
2022-10-19T08:01:53.461Z,0.93
2022-10-19T08:05:00.170Z,0.95
2022-10-19T08:08:04.088Z,1.05
2022-10-19T08:11:06.966Z,1.10
2022-10-19T08:14:09.750Z,0.90
2022-10-19T08:17:12.220Z,0.90
2022-10-19T08:20:15.352Z,0.90
2022-10-19T08:23:18.186Z,0.73
2022-10-19T08:26:20.770Z,0.90
2022-10-19T08:29:25.534Z,1.00
2022-10-19T08:32:30.335Z,0.85
2022-10-19T08:35:32.794Z,0.95
2022-10-19T08:38:35.635Z,1.05
2022-10-19T08:41:37.800Z,0.95
2022-10-19T08:44:40.802Z,1.10
2022-10-19T08:47:44.173Z,0.90
2022-10-19T08:50:47.471Z,0.82
2022-10-19T08:53:50.675Z,0.88
2022-10-19T08:56:53.014Z,0.77
2022-10-19T08:59:55.175Z,0.80
2022-10-19T09:02:58.153Z,1.00
2022-10-19T09:06:00.580Z,0.80
2022-10-19T09:09:03.624Z,1.10
2022-10-19T09:12:06.950Z,0.93
2022-10-19T09:15:10.505Z,0.95
2022-10-19T09:18:13.246Z,0.60
2022-10-19T09:21:16.438Z,0.88
2022-10-19T09:24:20.094Z,1.00
2022-10-19T09:27:23.364Z,0.77
2022-10-19T09:30:26.172Z,0.70
2022-10-19T09:33:29.049Z,0.82
2022-10-19T09:36:49.396Z,0.90
2022-10-19T09:39:54.935Z,0.88
2022-10-19T09:42:58.353Z,0.70
2022-10-19T09:46:00.823Z,0.90
2022-10-19T09:49:03.962Z,0.80
2022-10-19T09:52:06.760Z,0.90
2022-10-19T09:55:09.983Z,0.88
2022-10-19T09:58:13.187Z,0.80
2022-10-19T10:01:16.579Z,0.73
2022-10-19T10:04:19.740Z,1.08
2022-10-19T10:07:22.639Z,0.70
2022-10-19T10:10:28.142Z,0.82
2022-10-19T10:13:33.374Z,0.80
2022-10-19T10:16:36.092Z,0.70
2022-10-19T10:19:38.660Z,0.75
2022-10-19T10:22:40.754Z,0.68
2022-10-19T10:25:43.248Z,0.80
2022-10-19T10:28:46.093Z,0.90
2022-10-19T10:31:48.260Z,0.70
2022-10-19T10:34:53.062Z,0.68
2022-10-19T10:37:58.440Z,0.70
2022-10-19T10:41:00.671Z,0.60
2022-10-19T10:44:04.756Z,0.80
2022-10-19T10:47:08.272Z,0.70
2022-10-19T10:50:11.308Z,0.73
2022-10-19T10:53:13.875Z,0.80
2022-10-19T10:56:17.322Z,0.82
2022-10-19T10:59:19.463Z,0.90
2022-10-19T11:02:22.193Z,0.70
2022-10-19T11:05:24.663Z,0.80
2022-10-19T11:08:27.433Z,0.80
2022-10-19T11:11:29.988Z,0.75
2022-10-19T11:14:33.070Z,0.55
2022-10-19T11:17:36.295Z,0.70
2022-10-19T11:20:39.067Z,0.80
2022-10-19T11:23:42.237Z,0.73
2022-10-19T11:26:45.361Z,0.70
2022-10-19T11:29:48.139Z,0.70
2022-10-19T11:32:50.225Z,0.70
2022-10-19T11:35:53.186Z,0.50
2022-10-19T11:38:55.607Z,0.68
2022-10-19T11:41:57.735Z,0.63
2022-10-19T11:45:00.071Z,0.70
2022-10-19T11:48:03.103Z,0.60
2022-10-19T11:51:17.286Z,0.60
2022-10-19T11:54:24.771Z,0.60
2022-10-19T11:57:27.605Z,0.73
2022-10-19T12:00:45.085Z,0.63
2022-10-19T12:03:48.194Z,0.70
2022-10-19T12:06:51.332Z,0.80
2022-10-19T12:09:54.306Z,0.60
2022-10-19T12:12:56.861Z,0.70
2022-10-19T12:15:59.079Z,0.80
2022-10-19T12:19:01.745Z,0.70
2022-10-19T12:22:04.300Z,0.60
2022-10-19T12:25:06.780Z,0.57
2022-10-19T12:28:09.948Z,0.52
2022-10-19T12:31:12.824Z,0.80
2022-10-19T12:34:15.533Z,0.60
2022-10-19T12:37:18.457Z,0.60
2022-10-19T12:40:21.067Z,0.70
2022-10-19T12:43:23.508Z,0.60
2022-10-19T12:46:26.277Z,0.47
2022-10-19T12:49:28.976Z,0.50
2022-10-19T12:52:31.707Z,0.57
2022-10-19T12:55:34.297Z,0.70
2022-10-19T12:58:37.521Z,0.60
2022-10-19T13:01:40.321Z,0.70
2022-10-19T13:04:43.549Z,0.52
2022-10-19T13:07:45.990Z,0.57
2022-10-19T13:10:48.221Z,0.55
2022-10-19T13:13:51.168Z,0.60
2022-10-19T13:16:54.016Z,0.50
2022-10-19T13:19:56.827Z,0.50
2022-10-19T13:22:59.790Z,0.55
2022-10-19T13:26:02.705Z,0.40
2022-10-19T13:29:05.461Z,0.50
2022-10-19T13:32:08.250Z,0.70
2022-10-19T13:35:11.184Z,0.68
2022-10-19T13:38:13.972Z,0.40
2022-10-19T13:41:16.777Z,0.60
2022-10-19T13:44:19.244Z,0.50
2022-10-19T13:47:21.681Z,0.50
2022-10-19T13:50:24.282Z,0.70
2022-10-19T13:53:27.190Z,0.43
2022-10-19T13:56:30.009Z,0.40
2022-10-19T13:59:32.479Z,0.40
2022-10-19T14:02:35.681Z,0.50
2022-10-19T14:08:40.668Z,0.35
2022-10-19T14:11:43.654Z,0.40
2022-10-19T14:14:46.115Z,0.50
2022-10-19T14:17:48.737Z,0.30
2022-10-19T14:20:51.317Z,0.50
2022-10-19T14:23:53.720Z,0.50
2022-10-19T14:26:56.934Z,0.52
2022-10-19T14:30:00.390Z,0.40
2022-10-19T14:33:03.000Z,0.50
2022-10-19T14:36:05.206Z,0.35
2022-10-19T14:39:07.315Z,0.50
2022-10-19T14:42:10.234Z,0.30
2022-10-19T14:45:12.996Z,0.40
2022-10-19T14:48:15.476Z,0.40
2022-10-19T14:51:18.363Z,0.40
2022-10-19T14:54:21.397Z,0.32
2022-10-19T14:57:24.098Z,0.40
2022-10-19T15:03:34.786Z,0.40
2022-10-19T15:06:37.413Z,0.40
2022-10-19T15:09:47.775Z,0.30
2022-10-19T15:12:51.576Z,0.45
2022-10-19T15:15:54.434Z,0.40
2022-10-19T15:21:59.485Z,0.50
2022-10-19T15:25:01.881Z,0.40
2022-10-19T15:28:04.823Z,0.50
2022-10-19T15:31:07.282Z,0.38
2022-10-19T15:34:10.229Z,0.47
2022-10-19T15:37:13.486Z,0.50
2022-10-19T15:40:15.877Z,0.50
2022-10-19T15:43:18.818Z,0.60
2022-10-19T15:46:21.631Z,0.50
2022-10-19T15:49:24.176Z,0.43
2022-10-19T15:52:26.789Z,0.47
2022-10-19T15:55:29.043Z,0.50
2022-10-19T15:58:31.154Z,0.43
2022-10-19T16:01:34.116Z,0.50
2022-10-19T16:04:37.028Z,0.50
2022-10-19T16:07:39.904Z,0.50
2022-10-19T16:10:43.164Z,0.40
2022-10-19T16:13:46.580Z,0.40
2022-10-19T16:16:49.879Z,0.60
2022-10-19T16:19:52.802Z,0.50
2022-10-19T16:22:55.710Z,0.50
2022-10-19T16:25:58.088Z,0.52
2022-10-19T16:29:00.409Z,0.70
2022-10-19T16:32:03.203Z,0.60
2022-10-19T16:35:05.920Z,0.40
2022-10-19T16:38:08.995Z,0.52
2022-10-19T16:41:11.349Z,0.50
2022-10-19T16:44:14.017Z,0.50
2022-10-19T16:47:16.129Z,0.75
2022-10-19T16:50:18.430Z,0.40
2022-10-19T16:53:21.313Z,0.70
2022-10-19T16:56:23.936Z,0.50
2022-10-19T16:59:26.045Z,0.70
2022-10-19T17:02:28.677Z,0.80
2022-10-19T17:05:31.212Z,0.80
2022-10-19T17:08:37.044Z,0.70
2022-10-19T17:11:46.416Z,0.70
2022-10-19T17:14:49.051Z,0.52
2022-10-19T17:17:51.570Z,0.70
2022-10-19T17:20:55.587Z,0.80
2022-10-19T17:23:58.569Z,0.70
2022-10-19T17:27:01.222Z,0.80
2022-10-19T17:30:04.059Z,0.68
2022-10-19T17:33:06.905Z,0.60
2022-10-19T17:36:09.987Z,0.68
2022-10-19T17:39:13.447Z,0.60
2022-10-19T17:42:16.604Z,0.80
2022-10-19T17:45:19.395Z,0.70
2022-10-19T17:48:22.035Z,0.70
2022-10-19T17:51:24.620Z,0.70
2022-10-19T17:54:27.390Z,0.60
2022-10-19T17:57:30.141Z,0.70
2022-10-19T18:00:32.723Z,0.65
2022-10-19T18:03:36.205Z,0.70
2022-10-19T18:06:38.739Z,0.70
2022-10-19T18:09:41.724Z,0.80
2022-10-19T18:12:44.489Z,0.60
2022-10-19T18:15:47.423Z,0.80
2022-10-19T18:18:49.946Z,0.98
2022-10-19T18:21:52.061Z,0.93
2022-10-19T18:24:54.669Z,0.90
2022-10-19T18:27:56.840Z,0.85
2022-10-19T18:30:59.400Z,0.88
2022-10-19T18:34:03.549Z,0.80
2022-10-19T18:37:06.508Z,0.82
2022-10-19T18:40:09.598Z,0.90
2022-10-19T18:43:12.867Z,0.85
2022-10-19T18:46:15.828Z,0.90
2022-10-19T18:49:18.001Z,0.93
2022-10-19T18:52:20.924Z,0.98
2022-10-19T18:55:24.611Z,1.15
2022-10-19T18:58:27.596Z,0.90
2022-10-19T19:01:30.744Z,0.90
2022-10-19T19:04:34.565Z,0.82
2022-10-19T19:07:37.722Z,0.90
2022-10-19T19:10:40.547Z,0.88
2022-10-19T19:13:42.944Z,0.85
2022-10-19T19:16:45.760Z,0.90
2022-10-19T19:19:47.905Z,1.10
2022-10-19T19:22:50.589Z,1.00
2022-10-19T19:25:53.503Z,0.90
2022-10-19T19:28:56.615Z,0.90
2022-10-19T19:31:59.431Z,1.02
2022-10-19T19:35:02.038Z,0.90
2022-10-19T19:38:04.307Z,1.13
2022-10-19T19:41:07.475Z,1.10
2022-10-19T19:44:10.275Z,1.20
2022-10-19T19:47:12.974Z,0.90
2022-10-19T19:50:15.803Z,1.00
2022-10-19T19:53:17.979Z,1.00
2022-10-19T19:56:20.616Z,1.30
2022-10-19T19:59:23.296Z,1.13
2022-10-19T20:02:26.291Z,1.20
2022-10-19T20:05:29.610Z,0.90
2022-10-19T20:08:32.470Z,1.02
2022-10-19T20:11:36.199Z,1.08
2022-10-19T20:14:42.401Z,1.10
2022-10-19T20:17:45.421Z,1.00
2022-10-19T20:20:48.279Z,1.00
2022-10-19T20:23:51.168Z,1.13
2022-10-19T20:26:53.733Z,1.25
2022-10-19T20:29:56.399Z,1.05
2022-10-19T20:32:59.316Z,0.90
2022-10-19T20:36:02.569Z,1.00
2022-10-19T20:39:05.729Z,1.20
2022-10-19T20:42:08.601Z,1.00
2022-10-19T20:45:11.307Z,1.40
2022-10-19T20:48:13.402Z,1.00
2022-10-19T20:51:15.519Z,1.05
2022-10-19T20:54:17.697Z,1.10
2022-10-19T20:57:20.228Z,0.93
2022-10-19T21:00:22.710Z,1.20
2022-10-19T21:03:25.506Z,1.00
2022-10-19T21:06:28.107Z,1.10
2022-10-19T21:09:30.560Z,1.00
2022-10-19T21:12:33.743Z,1.10
2022-10-19T21:15:36.670Z,1.13
2022-10-19T21:18:39.542Z,1.20
2022-10-19T21:21:42.013Z,1.20
2022-10-19T21:24:44.451Z,1.13
2022-10-19T21:27:46.563Z,1.08
2022-10-19T21:30:49.130Z,1.17
2022-10-19T21:33:52.108Z,1.13
2022-10-19T21:36:55.190Z,1.23
2022-10-19T21:39:57.565Z,1.10
2022-10-19T21:43:00.470Z,1.17
2022-10-19T21:46:02.870Z,1.10
2022-10-19T21:49:05.533Z,1.20
2022-10-19T21:52:09.056Z,1.27
2022-10-19T21:55:14.173Z,1.20
2022-10-19T21:58:16.982Z,1.10
2022-10-19T22:01:19.622Z,0.90
2022-10-19T22:04:22.308Z,1.10
2022-10-19T22:07:24.713Z,1.10
2022-10-19T22:10:27.090Z,1.30
2022-10-19T22:13:29.837Z,1.20
2022-10-19T22:16:32.543Z,1.02
2022-10-19T22:19:35.225Z,1.10
2022-10-19T22:22:37.989Z,1.00
2022-10-19T22:25:40.509Z,1.10
2022-10-19T22:28:42.966Z,1.00
2022-10-19T22:31:45.600Z,1.25
2022-10-19T22:34:48.561Z,1.30
2022-10-19T22:37:51.158Z,1.23
2022-10-19T22:40:53.292Z,1.10
2022-10-19T22:43:55.799Z,1.13
2022-10-19T22:46:58.268Z,1.20
2022-10-19T22:50:01.191Z,1.20
2022-10-19T22:53:04.070Z,1.30
2022-10-19T22:56:07.402Z,1.20
2022-10-19T22:59:10.322Z,1.10
2022-10-19T23:02:12.559Z,1.30
2022-10-19T23:05:14.961Z,1.02
2022-10-19T23:08:18.214Z,1.13
2022-10-19T23:11:20.580Z,1.17
2022-10-19T23:14:23.503Z,1.20
2022-10-19T23:17:25.977Z,1.23
2022-10-19T23:20:28.469Z,1.40
2022-10-19T23:23:30.841Z,1.25
2022-10-19T23:26:33.262Z,1.20
2022-10-19T23:29:36.149Z,1.10
2022-10-19T23:32:38.841Z,1.27
2022-10-19T23:35:41.220Z,1.17
2022-10-19T23:38:43.989Z,1.40
2022-10-19T23:41:46.951Z,1.20
2022-10-19T23:44:49.418Z,1.20
2022-10-19T23:47:51.544Z,1.10
2022-10-19T23:50:53.841Z,1.38
2022-10-19T23:53:56.498Z,1.20
2022-10-19T23:56:59.390Z,1.10
